createdAt,value
2018-07-31T00:01:00.176Z,6.00
2018-07-31T00:03:28.915Z,9.93
2018-07-31T00:05:57.686Z,7.50
2018-07-31T00:08:26.472Z,5.97
2018-07-31T00:10:55.214Z,5.07
2018-07-31T00:13:24.022Z,6.07
2018-07-31T00:15:52.336Z,5.53
2018-07-31T00:18:20.736Z,5.63
2018-07-31T00:20:49.119Z,5.40
2018-07-31T00:23:17.502Z,4.93
2018-07-31T00:25:45.947Z,6.63
2018-07-31T00:28:14.700Z,9.63
2018-07-31T00:30:43.451Z,6.77
2018-07-31T00:33:11.790Z,5.83
2018-07-31T00:35:40.568Z,6.70
2018-07-31T00:38:09.204Z,7.47
2018-07-31T00:40:37.597Z,5.63
2018-07-31T00:43:05.976Z,5.57
2018-07-31T00:45:34.706Z,10.13
2018-07-31T00:48:03.427Z,7.73
2018-07-31T00:50:32.165Z,8.27
2018-07-31T00:53:00.916Z,7.30
2018-07-31T00:55:29.306Z,5.90
2018-07-31T00:57:57.829Z,7.40
2018-07-31T01:00:26.184Z,5.37
2018-07-31T01:02:54.900Z,5.00
2018-07-31T01:05:23.656Z,6.10
2018-07-31T01:07:52.037Z,7.30
2018-07-31T01:10:20.839Z,6.43
2018-07-31T01:12:49.246Z,5.53
2018-07-31T01:15:17.995Z,5.77
2018-07-31T01:17:46.394Z,5.67
2018-07-31T01:20:14.808Z,5.67
2018-07-31T01:22:43.229Z,5.90
2018-07-31T01:25:12.005Z,5.10
2018-07-31T01:27:40.358Z,6.07
2018-07-31T01:30:09.082Z,6.93
2018-07-31T01:32:38.266Z,6.27
2018-07-31T01:35:07.378Z,6.80
2018-07-31T01:37:35.721Z,6.23
2018-07-31T01:40:04.126Z,9.13
2018-07-31T01:42:32.847Z,10.47
2018-07-31T01:45:01.622Z,10.50
2018-07-31T01:47:30.003Z,6.40
2018-07-31T01:49:58.423Z,7.80
2018-07-31T01:52:26.776Z,6.87
2018-07-31T01:54:55.581Z,6.13
2018-07-31T01:57:24.336Z,8.80
2018-07-31T01:59:52.750Z,6.93
2018-07-31T02:02:21.074Z,7.93
2018-07-31T02:04:49.877Z,6.47
2018-07-31T02:07:18.665Z,6.73
2018-07-31T02:09:47.026Z,5.93
2018-07-31T02:12:15.440Z,6.10
2018-07-31T02:14:43.812Z,7.57
2018-07-31T02:17:12.228Z,5.97
2018-07-31T02:19:40.590Z,5.87
2018-07-31T02:22:09.362Z,7.13
2018-07-31T02:24:37.730Z,9.00
2018-07-31T02:27:06.629Z,7.77
2018-07-31T02:29:40.320Z,8.57
2018-07-31T02:32:08.713Z,9.07
2018-07-31T02:34:37.496Z,6.90
2018-07-31T02:37:05.998Z,6.67
2018-07-31T02:39:34.778Z,6.83
2018-07-31T02:42:03.139Z,8.60
2018-07-31T02:44:31.897Z,8.07
2018-07-31T02:47:00.708Z,7.23
2018-07-31T02:49:29.483Z,7.70
2018-07-31T02:51:57.856Z,7.40
2018-07-31T02:54:26.190Z,7.10
2018-07-31T02:56:54.913Z,7.37
2018-07-31T02:59:23.270Z,7.20
2018-07-31T03:01:52.012Z,6.97
2018-07-31T03:04:20.374Z,8.57
2018-07-31T03:06:48.747Z,7.17
2018-07-31T03:09:17.161Z,6.53
2018-07-31T03:11:45.594Z,6.87
2018-07-31T03:14:13.949Z,8.53
2018-07-31T03:16:42.337Z,8.03
2018-07-31T03:19:10.726Z,6.73
2018-07-31T03:21:39.064Z,7.17
2018-07-31T03:24:08.209Z,6.67
2018-07-31T03:26:36.952Z,6.93
2018-07-31T03:29:05.367Z,7.60
2018-07-31T03:31:33.733Z,7.27
2018-07-31T03:34:02.123Z,9.87
2018-07-31T03:36:30.494Z,9.27
2018-07-31T03:38:59.269Z,10.40
2018-07-31T03:41:27.663Z,7.13
2018-07-31T03:43:56.071Z,8.93
2018-07-31T03:46:24.510Z,8.50
2018-07-31T03:48:52.909Z,6.70
2018-07-31T03:51:21.296Z,7.57
2018-07-31T03:53:49.677Z,6.80
2018-07-31T03:56:18.090Z,8.33
2018-07-31T03:58:46.836Z,8.47
2018-07-31T04:01:16.067Z,7.57
2018-07-31T04:03:44.404Z,6.73
2018-07-31T04:06:13.224Z,7.53
2018-07-31T04:08:42.026Z,7.23
2018-07-31T04:11:10.490Z,9.03
2018-07-31T04:13:38.976Z,8.30
2018-07-31T04:16:07.445Z,8.40
2018-07-31T04:18:36.219Z,9.03
2018-07-31T04:21:04.589Z,8.80
2018-07-31T04:23:32.982Z,12.40
2018-07-31T04:26:01.417Z,7.07
2018-07-31T04:28:29.824Z,7.67
2018-07-31T04:30:58.661Z,8.73
2018-07-31T04:33:33.340Z,7.40
2018-07-31T04:36:01.735Z,8.13
2018-07-31T04:38:30.125Z,10.37
2018-07-31T04:40:59.209Z,7.63
2018-07-31T04:43:27.559Z,8.63
2018-07-31T04:45:56.271Z,8.57
2018-07-31T04:48:24.656Z,9.13
2018-07-31T04:50:53.538Z,9.37
2018-07-31T04:53:21.963Z,9.60
2018-07-31T04:55:50.736Z,8.40
2018-07-31T04:58:19.412Z,10.73
2018-07-31T05:00:47.752Z,9.77
2018-07-31T05:03:16.464Z,8.80
2018-07-31T05:05:45.236Z,8.47
2018-07-31T05:10:41.446Z,7.10
2018-07-31T05:13:10.224Z,10.07
2018-07-31T05:15:38.633Z,8.60
2018-07-31T05:18:06.974Z,6.97
2018-07-31T05:20:35.427Z,8.77
2018-07-31T05:23:03.829Z,10.17
2018-07-31T05:25:32.579Z,8.10
2018-07-31T05:28:00.978Z,10.23
2018-07-31T05:30:29.689Z,8.93
2018-07-31T05:32:58.064Z,8.47
2018-07-31T05:35:26.425Z,6.97
2018-07-31T05:37:54.830Z,8.47
2018-07-31T05:40:23.553Z,8.83
2018-07-31T05:42:51.944Z,10.03
2018-07-31T05:45:20.324Z,9.83
2018-07-31T05:47:49.065Z,7.93
2018-07-31T05:50:17.438Z,8.97
2018-07-31T05:52:46.204Z,7.90
2018-07-31T05:55:14.574Z,10.80
2018-07-31T05:57:43.369Z,7.93
2018-07-31T06:00:11.791Z,10.83
2018-07-31T06:02:40.619Z,9.10
2018-07-31T06:05:09.470Z,8.23
2018-07-31T06:07:38.306Z,11.20
2018-07-31T06:10:07.863Z,14.60
2018-07-31T06:12:36.642Z,7.93
2018-07-31T06:15:05.797Z,9.77
2018-07-31T06:17:34.161Z,8.77
2018-07-31T06:20:02.723Z,8.97
2018-07-31T06:22:31.551Z,8.10
2018-07-31T06:25:00.293Z,7.43
2018-07-31T06:27:28.638Z,9.90
2018-07-31T06:29:57.378Z,7.83
2018-07-31T06:32:25.764Z,9.83
2018-07-31T06:34:54.518Z,10.07
2018-07-31T06:37:23.274Z,7.77
2018-07-31T06:39:52.024Z,8.50
2018-07-31T06:42:20.845Z,10.53
2018-07-31T06:44:49.544Z,11.03
2018-07-31T06:47:18.312Z,9.20
2018-07-31T06:49:46.649Z,9.07
2018-07-31T06:52:15.047Z,10.30
2018-07-31T06:54:43.815Z,8.07
2018-07-31T06:57:12.658Z,9.37
2018-07-31T06:59:41.021Z,9.80
2018-07-31T07:02:09.794Z,15.57
2018-07-31T07:04:38.594Z,13.83
2018-07-31T07:07:06.956Z,12.20
2018-07-31T07:09:35.693Z,12.87
2018-07-31T07:12:04.102Z,13.13
2018-07-31T07:14:32.470Z,11.57
2018-07-31T07:17:00.852Z,10.70
2018-07-31T07:19:29.573Z,11.67
2018-07-31T07:21:58.334Z,10.63
2018-07-31T07:24:26.706Z,9.00
2018-07-31T07:26:55.593Z,10.33
2018-07-31T07:29:23.952Z,8.00
2018-07-31T07:31:52.322Z,12.57
2018-07-31T07:34:20.711Z,9.93
2018-07-31T07:36:49.505Z,9.23
2018-07-31T07:39:18.281Z,10.83
2018-07-31T07:41:47.028Z,10.63
2018-07-31T07:44:15.811Z,11.37
2018-07-31T07:46:44.151Z,15.80
2018-07-31T07:49:12.901Z,16.93
2018-07-31T07:51:41.269Z,11.17
2018-07-31T07:54:10.153Z,10.97
2018-07-31T07:56:38.423Z,12.03
2018-07-31T07:59:06.766Z,8.90
2018-07-31T08:01:35.548Z,10.27
2018-07-31T08:04:04.401Z,9.93
2018-07-31T08:06:32.815Z,12.20
2018-07-31T08:09:01.160Z,12.27
2018-07-31T08:11:29.874Z,11.80
2018-07-31T08:13:58.306Z,11.73
2018-07-31T08:16:27.077Z,10.37
2018-07-31T08:18:55.581Z,11.50
2018-07-31T08:21:24.401Z,15.70
2018-07-31T08:23:53.181Z,8.50
2018-07-31T08:26:21.977Z,11.73
2018-07-31T08:28:50.626Z,9.57
2018-07-31T08:31:19.396Z,8.83
2018-07-31T08:33:52.894Z,13.80
2018-07-31T08:36:22.573Z,9.73
2018-07-31T08:38:51.463Z,14.37
2018-07-31T08:41:20.188Z,10.57
2018-07-31T08:43:48.557Z,15.87
2018-07-31T08:46:17.303Z,10.30
2018-07-31T08:48:46.266Z,11.37
2018-07-31T08:51:14.705Z,11.13
2018-07-31T08:53:43.098Z,12.90
2018-07-31T08:56:11.456Z,10.93
2018-07-31T08:58:40.716Z,12.33
2018-07-31T09:01:09.129Z,12.83
2018-07-31T09:03:38.083Z,15.20
2018-07-31T09:06:07.272Z,11.67
2018-07-31T09:08:36.291Z,13.13
2018-07-31T09:11:05.049Z,17.63
2018-07-31T09:13:39.006Z,10.63
2018-07-31T09:16:07.914Z,19.03
2018-07-31T09:18:37.093Z,11.70
2018-07-31T09:21:05.546Z,11.57
2018-07-31T09:23:34.326Z,15.13
2018-07-31T09:26:03.102Z,14.80
2018-07-31T09:28:31.511Z,9.97
2018-07-31T09:31:05.482Z,11.27
2018-07-31T09:33:33.808Z,13.77
2018-07-31T09:36:02.293Z,18.80
2018-07-31T09:38:31.044Z,12.33
2018-07-31T09:40:59.853Z,10.97
2018-07-31T09:43:28.245Z,7.53
2018-07-31T09:45:57.043Z,12.37
2018-07-31T09:48:25.406Z,8.97
2018-07-31T09:50:53.812Z,7.07
2018-07-31T09:53:22.591Z,16.90
2018-07-31T09:55:51.393Z,9.60
2018-07-31T09:58:19.881Z,8.23
2018-07-31T10:00:53.652Z,11.93
2018-07-31T10:03:22.474Z,6.00
2018-07-31T10:05:51.170Z,9.77
2018-07-31T10:08:20.825Z,8.43
2018-07-31T10:10:51.357Z,10.00
2018-07-31T10:13:19.885Z,8.57
2018-07-31T10:15:48.686Z,6.83
2018-07-31T10:18:17.610Z,5.80
2018-07-31T10:20:46.412Z,7.30
2018-07-31T10:23:15.141Z,8.00
2018-07-31T10:25:43.949Z,8.37
2018-07-31T10:28:12.332Z,7.00
2018-07-31T10:30:41.150Z,15.03
2018-07-31T10:33:09.564Z,7.53
2018-07-31T10:35:38.034Z,9.23
2018-07-31T10:38:06.859Z,6.47
2018-07-31T10:40:35.738Z,7.47
2018-07-31T10:43:04.165Z,10.30
2018-07-31T10:45:32.943Z,9.85
2018-07-31T10:48:01.724Z,8.00
2018-07-31T10:50:30.545Z,8.98
2018-07-31T10:52:59.324Z,7.75
2018-07-31T10:55:28.123Z,6.35
2018-07-31T10:57:56.909Z,8.80
2018-07-31T11:00:25.391Z,7.90
2018-07-31T11:02:54.196Z,6.17
2018-07-31T11:05:22.540Z,5.47
2018-07-31T11:07:51.305Z,5.20
2018-07-31T11:10:20.118Z,7.28
2018-07-31T11:12:48.885Z,5.58
2018-07-31T11:15:17.742Z,6.60
2018-07-31T11:17:46.160Z,8.23
2018-07-31T11:20:14.959Z,4.65
2018-07-31T11:22:43.767Z,10.60
2018-07-31T11:25:12.622Z,4.95
2018-07-31T11:27:41.544Z,6.00
2018-07-31T11:30:10.383Z,5.30
2018-07-31T11:32:38.749Z,6.00
2018-07-31T11:35:07.558Z,4.92
2018-07-31T11:37:36.352Z,5.37
2018-07-31T11:40:05.253Z,5.33
2018-07-31T11:42:34.027Z,4.53
2018-07-31T11:45:02.787Z,4.78
2018-07-31T11:47:31.570Z,7.67
2018-07-31T11:50:00.368Z,5.35
2018-07-31T11:52:28.738Z,4.35
2018-07-31T11:54:57.117Z,4.87
2018-07-31T11:57:25.894Z,5.40
2018-07-31T11:59:54.659Z,4.17
2018-07-31T12:02:23.417Z,5.45
2018-07-31T12:04:51.808Z,6.42
2018-07-31T12:07:20.523Z,4.90
2018-07-31T12:09:49.368Z,4.33
2018-07-31T12:12:18.135Z,7.35
2018-07-31T12:14:46.895Z,3.55
2018-07-31T12:17:15.669Z,4.90
2018-07-31T12:19:44.442Z,5.33
2018-07-31T12:22:13.241Z,3.33
2018-07-31T12:24:42.328Z,4.12
2018-07-31T12:27:10.723Z,6.60
2018-07-31T12:29:39.496Z,6.12
2018-07-31T12:32:08.375Z,6.25
2018-07-31T12:34:37.131Z,4.25
2018-07-31T12:37:06.115Z,5.00
2018-07-31T12:39:34.860Z,5.12
2018-07-31T12:42:03.689Z,5.58
2018-07-31T12:44:32.084Z,10.65
2018-07-31T12:47:00.970Z,4.80
2018-07-31T12:49:29.756Z,4.90
2018-07-31T12:51:58.532Z,2.92
2018-07-31T12:54:26.905Z,4.90
2018-07-31T12:56:55.726Z,5.92
2018-07-31T12:59:24.095Z,5.47
2018-07-31T13:01:52.876Z,6.17
2018-07-31T13:04:21.710Z,4.47
2018-07-31T13:06:50.450Z,4.00
2018-07-31T13:09:19.306Z,3.75
2018-07-31T13:11:47.689Z,2.90
2018-07-31T13:14:16.055Z,3.62
2018-07-31T13:16:44.881Z,5.92
2018-07-31T13:19:13.624Z,4.10
2018-07-31T13:21:42.406Z,4.30
2018-07-31T13:24:11.220Z,4.62
2018-07-31T13:26:39.923Z,4.35
2018-07-31T13:29:09.041Z,5.25
2018-07-31T13:31:37.752Z,2.67
2018-07-31T13:34:06.493Z,5.80
2018-07-31T13:36:35.266Z,2.85
2018-07-31T13:39:06.398Z,3.55
2018-07-31T13:41:35.182Z,5.78
2018-07-31T13:44:04.634Z,5.12
2018-07-31T13:46:33.326Z,6.47
2018-07-31T13:49:01.653Z,3.92
2018-07-31T13:51:30.544Z,6.40
2018-07-31T13:53:59.277Z,4.65
2018-07-31T13:56:28.022Z,5.30
2018-07-31T13:58:56.739Z,3.42
2018-07-31T14:01:25.154Z,9.95
2018-07-31T14:03:53.912Z,2.77
2018-07-31T14:06:22.334Z,5.22
2018-07-31T14:08:51.060Z,3.60
2018-07-31T14:11:19.915Z,4.78
2018-07-31T14:13:48.746Z,5.87
2018-07-31T14:16:17.090Z,4.42
2018-07-31T14:18:45.891Z,3.42
2018-07-31T14:21:14.652Z,5.97
2018-07-31T14:23:43.010Z,4.60
2018-07-31T14:26:11.832Z,4.60
2018-07-31T14:28:40.608Z,4.33
2018-07-31T14:31:09.323Z,2.67
2018-07-31T14:33:38.124Z,3.60
2018-07-31T14:36:07.563Z,3.95
2018-07-31T14:38:36.317Z,4.42
2018-07-31T14:41:05.992Z,4.92
2018-07-31T14:43:34.750Z,5.75
2018-07-31T14:46:03.141Z,5.80
2018-07-31T14:48:32.227Z,6.30
2018-07-31T14:51:01.893Z,4.97
2018-07-31T14:53:36.136Z,4.87
2018-07-31T14:56:04.906Z,4.55
2018-07-31T14:58:33.694Z,2.95
2018-07-31T15:01:02.524Z,6.58
2018-07-31T15:03:31.265Z,4.15
2018-07-31T15:06:00.123Z,3.50
2018-07-31T15:08:28.874Z,7.03
2018-07-31T15:10:57.751Z,2.50
2018-07-31T15:13:26.506Z,5.03
2018-07-31T15:15:55.244Z,2.12
2018-07-31T15:18:24.018Z,6.03
2018-07-31T15:20:52.414Z,10.53
2018-07-31T15:23:21.203Z,6.28
2018-07-31T15:25:50.056Z,4.65
2018-07-31T15:28:19.307Z,3.52
2018-07-31T15:30:48.049Z,3.55
2018-07-31T15:33:16.421Z,5.53
2018-07-31T15:35:44.841Z,3.98
2018-07-31T15:38:13.627Z,6.65
2018-07-31T15:40:42.475Z,4.25
2018-07-31T15:43:10.877Z,6.42
2018-07-31T15:45:40.227Z,4.95
2018-07-31T15:48:08.650Z,3.98
2018-07-31T15:50:37.407Z,4.05
2018-07-31T15:53:05.857Z,7.97
2018-07-31T15:55:34.670Z,3.55
2018-07-31T15:58:03.386Z,7.17
2018-07-31T16:00:32.179Z,3.35
2018-07-31T16:03:00.567Z,3.92
2018-07-31T16:05:29.345Z,5.70
2018-07-31T16:07:58.162Z,4.08
2018-07-31T16:10:26.553Z,4.30
2018-07-31T16:12:55.355Z,6.50
2018-07-31T16:15:24.159Z,4.42
2018-07-31T16:17:52.588Z,3.08
2018-07-31T16:20:21.556Z,4.75
2018-07-31T16:22:50.531Z,2.92
2018-07-31T16:25:19.999Z,6.62
2018-07-31T16:27:48.816Z,5.22
2018-07-31T16:30:17.528Z,3.30
2018-07-31T16:32:45.944Z,6.70
2018-07-31T16:35:14.743Z,5.22
2018-07-31T16:37:43.161Z,4.30
2018-07-31T16:40:11.548Z,5.30
2018-07-31T16:42:39.965Z,4.87
2018-07-31T16:45:08.385Z,8.53
2018-07-31T16:47:37.260Z,8.45
2018-07-31T16:50:06.040Z,5.05
2018-07-31T16:52:34.815Z,6.42
2018-07-31T16:55:03.681Z,11.08
2018-07-31T16:57:32.470Z,10.72
2018-07-31T17:00:01.255Z,6.70
2018-07-31T17:02:30.020Z,11.25
2018-07-31T17:04:58.746Z,7.92
2018-07-31T17:07:27.066Z,8.45
2018-07-31T17:09:55.471Z,5.05
2018-07-31T17:12:23.882Z,6.92
2018-07-31T17:14:52.695Z,7.90
2018-07-31T17:17:21.496Z,7.97
2018-07-31T17:19:50.236Z,10.55
2018-07-31T17:22:18.991Z,7.78
2018-07-31T17:24:47.324Z,6.85
2018-07-31T17:27:16.126Z,7.25
2018-07-31T17:29:44.945Z,8.80
2018-07-31T17:32:13.411Z,5.58
2018-07-31T17:34:42.185Z,9.23
2018-07-31T17:37:10.975Z,6.12
2018-07-31T17:39:39.724Z,8.48
2018-07-31T17:42:08.111Z,6.90
2018-07-31T17:44:36.619Z,11.60
2018-07-31T17:47:05.315Z,9.45
2018-07-31T17:49:34.114Z,8.05
2018-07-31T17:52:02.899Z,8.58
2018-07-31T17:54:31.307Z,7.10
2018-07-31T17:57:00.067Z,6.53
2018-07-31T17:59:28.839Z,4.33
2018-07-31T18:01:57.613Z,10.05
2018-07-31T18:04:26.345Z,8.20
2018-07-31T18:06:55.158Z,9.98
2018-07-31T18:09:23.528Z,7.67
2018-07-31T18:11:52.274Z,7.57
2018-07-31T18:14:21.188Z,6.20
2018-07-31T18:16:49.844Z,9.13
2018-07-31T18:19:18.643Z,8.77
2018-07-31T18:21:46.982Z,5.03
2018-07-31T18:24:15.403Z,8.17
2018-07-31T18:26:43.808Z,7.63
2018-07-31T18:29:12.228Z,9.23
2018-07-31T18:31:41.072Z,6.13
2018-07-31T18:34:09.877Z,7.10
2018-07-31T18:36:38.288Z,4.93
2018-07-31T18:39:10.135Z,9.60
2018-07-31T18:41:39.025Z,6.10
2018-07-31T18:44:07.904Z,9.67
2018-07-31T18:46:36.618Z,8.73
2018-07-31T18:49:05.475Z,5.67
2018-07-31T18:51:34.667Z,10.63
2018-07-31T18:54:03.065Z,9.73
2018-07-31T18:56:31.462Z,9.77
2018-07-31T18:58:59.859Z,9.47
2018-07-31T19:01:28.316Z,7.90
2018-07-31T19:03:58.276Z,9.30
2018-07-31T19:06:26.683Z,8.37
2018-07-31T19:08:55.422Z,6.07
2018-07-31T19:11:24.160Z,7.23
2018-07-31T19:13:52.528Z,5.43
2018-07-31T19:16:21.323Z,5.70
2018-07-31T19:18:49.676Z,5.50
2018-07-31T19:21:18.475Z,5.67
2018-07-31T19:23:46.833Z,9.10
2018-07-31T19:26:15.876Z,7.70
2018-07-31T19:28:44.657Z,5.90
2018-07-31T19:31:13.177Z,5.77
2018-07-31T19:33:41.967Z,9.73
2018-07-31T19:36:11.435Z,9.73
2018-07-31T19:38:39.884Z,7.83
2018-07-31T19:41:08.653Z,7.97
2018-07-31T19:43:37.451Z,5.93
2018-07-31T19:46:06.283Z,7.17
2018-07-31T19:48:35.042Z,10.53
2018-07-31T19:51:03.433Z,5.07
2018-07-31T19:53:32.641Z,5.77
2018-07-31T19:56:01.654Z,5.07
2018-07-31T19:58:30.375Z,7.10
2018-07-31T20:00:58.750Z,6.67
2018-07-31T20:03:27.887Z,5.57
2018-07-31T20:05:56.213Z,7.77
2018-07-31T20:08:25.072Z,5.73
2018-07-31T20:10:53.881Z,4.37
2018-07-31T20:13:22.246Z,5.70
2018-07-31T20:15:50.990Z,5.77
2018-07-31T20:18:19.752Z,4.37
2018-07-31T20:20:48.120Z,4.33
2018-07-31T20:23:16.566Z,8.17
2018-07-31T20:25:44.975Z,9.00
2018-07-31T20:28:13.834Z,13.50
2018-07-31T20:30:42.252Z,6.40
2018-07-31T20:33:10.573Z,5.47
2018-07-31T20:35:38.972Z,7.43
2018-07-31T20:38:07.437Z,5.43
2018-07-31T20:40:35.794Z,5.27
2018-07-31T20:43:04.545Z,5.10
2018-07-31T20:45:32.896Z,6.30
2018-07-31T20:48:01.345Z,3.43
2018-07-31T20:50:29.677Z,4.40
2018-07-31T20:52:58.061Z,8.37
2018-07-31T20:55:26.924Z,5.33
2018-07-31T20:57:55.299Z,8.83
2018-07-31T21:00:23.665Z,5.23
2018-07-31T21:02:52.476Z,4.50
2018-07-31T21:05:21.382Z,7.07
2018-07-31T21:07:50.159Z,4.83
2018-07-31T21:10:18.575Z,5.87
2018-07-31T21:12:47.390Z,6.43
2018-07-31T21:15:16.148Z,7.37
2018-07-31T21:17:44.910Z,5.10
2018-07-31T21:20:13.282Z,2.37
2018-07-31T21:22:41.664Z,5.10
2018-07-31T21:25:10.152Z,5.07
2018-07-31T21:27:38.890Z,4.70
2018-07-31T21:30:07.848Z,2.47
2018-07-31T21:32:36.301Z,4.47
2018-07-31T21:35:04.742Z,2.70
2018-07-31T21:37:33.714Z,6.67
2018-07-31T21:40:02.144Z,5.60
2018-07-31T21:42:30.540Z,3.83
2018-07-31T21:44:59.319Z,4.60
2018-07-31T21:47:28.086Z,4.37
2018-07-31T21:49:57.348Z,3.03
2018-07-31T21:52:26.052Z,5.07
2018-07-31T21:54:54.953Z,9.43
2018-07-31T21:57:23.336Z,5.13
2018-07-31T21:59:51.830Z,4.00
2018-07-31T22:02:20.217Z,4.20
2018-07-31T22:04:48.602Z,6.63
2018-07-31T22:07:17.007Z,4.03
2018-07-31T22:09:45.898Z,4.20
2018-07-31T22:12:14.256Z,5.93
2018-07-31T22:14:43.105Z,3.20
2018-07-31T22:17:11.474Z,6.10
2018-07-31T22:19:40.768Z,5.20
2018-07-31T22:22:09.596Z,4.53
2018-07-31T22:24:38.538Z,3.73
2018-07-31T22:27:06.428Z,4.50
2018-07-31T22:29:34.776Z,4.97
2018-07-31T22:32:04.392Z,5.87
2018-07-31T22:34:33.228Z,6.87
2018-07-31T22:37:01.571Z,6.97
2018-07-31T22:39:29.964Z,8.20
2018-07-31T22:41:58.737Z,7.73
2018-07-31T22:44:27.096Z,5.00
2018-07-31T22:46:55.479Z,3.07
2018-07-31T22:49:24.226Z,8.87
2018-07-31T22:51:53.057Z,4.97
2018-07-31T22:54:21.785Z,7.13
2018-07-31T22:56:50.177Z,4.90
2018-07-31T22:59:18.557Z,5.23
2018-07-31T23:01:47.287Z,8.53
2018-07-31T23:04:16.056Z,7.23
2018-07-31T23:06:44.818Z,5.33
2018-07-31T23:09:13.254Z,13.13
2018-07-31T23:11:42.096Z,12.50
2018-07-31T23:14:11.621Z,12.17
2018-07-31T23:24:03.221Z,9.25
2018-07-31T23:26:32.046Z,11.03
2018-07-31T23:29:00.398Z,12.73
2018-07-31T23:31:28.806Z,11.23
2018-07-31T23:33:58.564Z,7.67
2018-07-31T23:36:27.367Z,6.73
2018-07-31T23:38:55.739Z,11.37
2018-07-31T23:41:24.520Z,10.40
2018-07-31T23:43:52.959Z,14.10
2018-07-31T23:46:21.724Z,7.50
2018-07-31T23:48:50.098Z,7.27
2018-07-31T23:51:18.881Z,6.50
2018-07-31T23:53:47.683Z,5.83
2018-07-31T23:56:16.028Z,7.17
2018-07-31T23:58:44.396Z,9.00
